sensor_id;sensor_type;location;lat;lon;timestamp;P1;durP1;ratioP1;P2;durP2;ratioP2
22937;SDS011;11634;42.734;23.298;2024-03-23T00:54:16;16.13;;;11.30;;
22937;SDS011;11634;42.734;23.298;2024-03-23T00:56:43;15.50;;;9.77;;
22937;SDS011;11634;42.734;23.298;2024-03-23T00:59:09;16.43;;;11.10;;
22937;SDS011;11634;42.734;23.298;2024-03-23T01:01:34;20.53;;;11.00;;
22937;SDS011;11634;42.734;23.298;2024-03-23T01:04:00;14.67;;;10.30;;
22937;SDS011;11634;42.734;23.298;2024-03-23T01:06:26;15.83;;;11.17;;
22937;SDS011;11634;42.734;23.298;2024-03-23T01:08:52;17.87;;;11.13;;
22937;SDS011;11634;42.734;23.298;2024-03-23T01:11:17;17.37;;;10.60;;
22937;SDS011;11634;42.734;23.298;2024-03-23T01:13:43;14.30;;;10.00;;
22937;SDS011;11634;42.734;23.298;2024-03-23T01:16:08;17.60;;;10.40;;
22937;SDS011;11634;42.734;23.298;2024-03-23T01:18:34;17.30;;;11.07;;
22937;SDS011;11634;42.734;23.298;2024-03-23T01:20:59;14.90;;;10.67;;
22937;SDS011;11634;42.734;23.298;2024-03-23T01:23:25;17.20;;;11.53;;
22937;SDS011;11634;42.734;23.298;2024-03-23T01:25:53;16.30;;;10.93;;
22937;SDS011;11634;42.734;23.298;2024-03-23T01:28:20;19.27;;;12.83;;
22937;SDS011;11634;42.734;23.298;2024-03-23T01:30:45;20.57;;;11.60;;
22937;SDS011;11634;42.734;23.298;2024-03-23T01:33:11;18.90;;;11.37;;
22937;SDS011;11634;42.734;23.298;2024-03-23T01:35:36;16.70;;;11.13;;
22937;SDS011;11634;42.734;23.298;2024-03-23T01:38:02;17.03;;;11.13;;
22937;SDS011;11634;42.734;23.298;2024-03-23T01:40:29;18.27;;;10.93;;
22937;SDS011;11634;42.734;23.298;2024-03-23T01:43:04;19.67;;;11.47;;
22937;SDS011;11634;42.734;23.298;2024-03-23T01:45:30;17.30;;;10.27;;
22937;SDS011;11634;42.734;23.298;2024-03-23T01:47:56;16.03;;;11.00;;
22937;SDS011;11634;42.734;23.298;2024-03-23T01:50:24;12.57;;;9.53;;
22937;SDS011;11634;42.734;23.298;2024-03-23T01:52:50;12.47;;;9.40;;
22937;SDS011;11634;42.734;23.298;2024-03-23T01:55:16;11.30;;;8.43;;
22937;SDS011;11634;42.734;23.298;2024-03-23T01:57:41;13.43;;;8.90;;
22937;SDS011;11634;42.734;23.298;2024-03-23T02:00:07;13.00;;;9.27;;
22937;SDS011;11634;42.734;23.298;2024-03-23T02:02:43;13.63;;;8.93;;
22937;SDS011;11634;42.734;23.298;2024-03-23T02:05:10;11.93;;;7.77;;
22937;SDS011;11634;42.734;23.298;2024-03-23T02:07:36;14.13;;;9.13;;
22937;SDS011;11634;42.734;23.298;2024-03-23T02:10:02;12.40;;;8.30;;
22937;SDS011;11634;42.734;23.298;2024-03-23T02:12:28;12.20;;;8.37;;
22937;SDS011;11634;42.734;23.298;2024-03-23T02:14:54;14.53;;;8.57;;
22937;SDS011;11634;42.734;23.298;2024-03-23T02:17:19;14.47;;;9.33;;
22937;SDS011;11634;42.734;23.298;2024-03-23T02:19:44;13.70;;;9.57;;
22937;SDS011;11634;42.734;23.298;2024-03-23T02:22:11;14.57;;;10.23;;
22937;SDS011;11634;42.734;23.298;2024-03-23T02:24:37;14.53;;;9.70;;
22937;SDS011;11634;42.734;23.298;2024-03-23T02:27:03;13.00;;;8.93;;
22937;SDS011;11634;42.734;23.298;2024-03-23T02:29:29;14.93;;;9.37;;
22937;SDS011;11634;42.734;23.298;2024-03-23T02:31:55;14.87;;;9.07;;
22937;SDS011;11634;42.734;23.298;2024-03-23T02:34:20;14.37;;;9.43;;
22937;SDS011;11634;42.734;23.298;2024-03-23T02:36:46;19.67;;;14.13;;
22937;SDS011;11634;42.734;23.298;2024-03-23T02:39:11;17.77;;;13.17;;
22937;SDS011;11634;42.734;23.298;2024-03-23T02:41:37;18.03;;;10.47;;
22937;SDS011;11634;42.734;23.298;2024-03-23T02:44:02;15.20;;;10.83;;
22937;SDS011;11634;42.734;23.298;2024-03-23T02:46:28;17.30;;;11.17;;
22937;SDS011;11634;42.734;23.298;2024-03-23T02:48:53;17.37;;;11.43;;
22937;SDS011;11634;42.734;23.298;2024-03-23T02:51:19;18.37;;;11.17;;
22937;SDS011;11634;42.734;23.298;2024-03-23T02:53:44;19.60;;;12.40;;
22937;SDS011;11634;42.734;23.298;2024-03-23T02:56:11;20.30;;;12.97;;
22937;SDS011;11634;42.734;23.298;2024-03-23T02:58:41;18.77;;;11.57;;
22937;SDS011;11634;42.734;23.298;2024-03-23T03:01:06;15.10;;;11.47;;
22937;SDS011;11634;42.734;23.298;2024-03-23T03:03:32;17.67;;;11.10;;
22937;SDS011;11634;42.734;23.298;2024-03-23T03:05:59;15.47;;;10.53;;
22937;SDS011;11634;42.734;23.298;2024-03-23T03:08:24;13.00;;;10.20;;
22937;SDS011;11634;42.734;23.298;2024-03-23T03:10:49;16.70;;;10.80;;
22937;SDS011;11634;42.734;23.298;2024-03-23T03:13:15;15.57;;;10.50;;
22937;SDS011;11634;42.734;23.298;2024-03-23T03:15:41;17.77;;;11.13;;
22937;SDS011;11634;42.734;23.298;2024-03-23T03:18:08;16.47;;;11.70;;
22937;SDS011;11634;42.734;23.298;2024-03-23T03:20:37;14.90;;;11.50;;
22937;SDS011;11634;42.734;23.298;2024-03-23T03:23:04;18.33;;;11.27;;
22937;SDS011;11634;42.734;23.298;2024-03-23T03:25:30;16.03;;;11.53;;
22937;SDS011;11634;42.734;23.298;2024-03-23T03:27:55;20.13;;;11.33;;
22937;SDS011;11634;42.734;23.298;2024-03-23T03:30:21;16.70;;;10.83;;
22937;SDS011;11634;42.734;23.298;2024-03-23T03:32:46;15.60;;;12.10;;
22937;SDS011;11634;42.734;23.298;2024-03-23T03:35:12;25.40;;;13.60;;
22937;SDS011;11634;42.734;23.298;2024-03-23T03:37:38;20.83;;;13.30;;
22937;SDS011;11634;42.734;23.298;2024-03-23T03:40:03;19.37;;;12.73;;
22937;SDS011;11634;42.734;23.298;2024-03-23T03:42:30;23.10;;;13.33;;
22937;SDS011;11634;42.734;23.298;2024-03-23T03:44:56;17.47;;;12.90;;
22937;SDS011;11634;42.734;23.298;2024-03-23T03:47:21;24.43;;;16.70;;
22937;SDS011;11634;42.734;23.298;2024-03-23T03:49:48;19.20;;;13.57;;
22937;SDS011;11634;42.734;23.298;2024-03-23T03:52:13;19.10;;;13.50;;
22937;SDS011;11634;42.734;23.298;2024-03-23T03:54:40;19.60;;;12.80;;
22937;SDS011;11634;42.734;23.298;2024-03-23T03:57:05;19.50;;;13.87;;
22937;SDS011;11634;42.734;23.298;2024-03-23T03:59:31;20.73;;;13.17;;
22937;SDS011;11634;42.734;23.298;2024-03-23T04:01:56;22.13;;;13.83;;
22937;SDS011;11634;42.734;23.298;2024-03-23T04:04:24;18.70;;;12.77;;
22937;SDS011;11634;42.734;23.298;2024-03-23T04:06:49;21.07;;;12.90;;
22937;SDS011;11634;42.734;23.298;2024-03-23T04:09:15;19.60;;;11.47;;
22937;SDS011;11634;42.734;23.298;2024-03-23T04:11:40;18.37;;;11.93;;
22937;SDS011;11634;42.734;23.298;2024-03-23T04:14:06;16.63;;;10.93;;
22937;SDS011;11634;42.734;23.298;2024-03-23T04:16:35;17.57;;;11.47;;
22937;SDS011;11634;42.734;23.298;2024-03-23T04:19:01;13.90;;;9.87;;
22937;SDS011;11634;42.734;23.298;2024-03-23T04:21:26;16.23;;;10.63;;
22937;SDS011;11634;42.734;23.298;2024-03-23T04:23:52;16.43;;;9.83;;
22937;SDS011;11634;42.734;23.298;2024-03-23T04:26:17;14.73;;;10.03;;
22937;SDS011;11634;42.734;23.298;2024-03-23T04:28:43;15.10;;;10.30;;
22937;SDS011;11634;42.734;23.298;2024-03-23T04:31:09;15.97;;;10.70;;
22937;SDS011;11634;42.734;23.298;2024-03-23T04:33:34;17.67;;;11.13;;
22937;SDS011;11634;42.734;23.298;2024-03-23T04:36:01;16.83;;;9.97;;
22937;SDS011;11634;42.734;23.298;2024-03-23T04:38:28;14.07;;;9.67;;
22937;SDS011;11634;42.734;23.298;2024-03-23T04:40:54;17.20;;;11.17;;
22937;SDS011;11634;42.734;23.298;2024-03-23T04:43:19;14.10;;;10.17;;
22937;SDS011;11634;42.734;23.298;2024-03-23T04:45:45;15.90;;;10.73;;
22937;SDS011;11634;42.734;23.298;2024-03-23T04:48:13;14.60;;;9.73;;
22937;SDS011;11634;42.734;23.298;2024-03-23T04:50:39;15.63;;;10.80;;
22937;SDS011;11634;42.734;23.298;2024-03-23T04:53:04;16.67;;;11.43;;
22937;SDS011;11634;42.734;23.298;2024-03-23T04:55:30;19.37;;;11.60;;
22937;SDS011;11634;42.734;23.298;2024-03-23T04:57:56;16.70;;;10.67;;
22937;SDS011;11634;42.734;23.298;2024-03-23T05:00:21;19.10;;;11.00;;
22937;SDS011;11634;42.734;23.298;2024-03-23T05:02:48;23.90;;;11.17;;
22937;SDS011;11634;42.734;23.298;2024-03-23T05:05:15;14.60;;;10.83;;
22937;SDS011;11634;42.734;23.298;2024-03-23T05:07:42;15.57;;;11.17;;
22937;SDS011;11634;42.734;23.298;2024-03-23T05:10:09;17.07;;;10.97;;
22937;SDS011;11634;42.734;23.298;2024-03-23T05:12:37;15.57;;;10.57;;
22937;SDS011;11634;42.734;23.298;2024-03-23T05:15:03;18.50;;;10.93;;
22937;SDS011;11634;42.734;23.298;2024-03-23T05:17:29;18.30;;;11.30;;
22937;SDS011;11634;42.734;23.298;2024-03-23T05:19:57;19.57;;;10.73;;
22937;SDS011;11634;42.734;23.298;2024-03-23T05:22:24;17.67;;;10.93;;
22937;SDS011;11634;42.734;23.298;2024-03-23T05:24:50;16.83;;;11.17;;
22937;SDS011;11634;42.734;23.298;2024-03-23T05:27:15;21.53;;;12.10;;
22937;SDS011;11634;42.734;23.298;2024-03-23T05:29:41;17.00;;;11.77;;
22937;SDS011;11634;42.734;23.298;2024-03-23T05:32:06;15.70;;;10.33;;
22937;SDS011;11634;42.734;23.298;2024-03-23T05:34:33;15.73;;;10.27;;
22937;SDS011;11634;42.734;23.298;2024-03-23T05:36:58;16.20;;;10.70;;
22937;SDS011;11634;42.734;23.298;2024-03-23T05:39:27;16.47;;;10.77;;
22937;SDS011;11634;42.734;23.298;2024-03-23T05:41:52;16.63;;;11.47;;
22937;SDS011;11634;42.734;23.298;2024-03-23T05:44:19;19.37;;;11.67;;
22937;SDS011;11634;42.734;23.298;2024-03-23T05:46:45;16.10;;;10.43;;
22937;SDS011;11634;42.734;23.298;2024-03-23T05:49:15;17.83;;;12.10;;
22937;SDS011;11634;42.734;23.298;2024-03-23T05:51:40;14.17;;;8.90;;
22937;SDS011;11634;42.734;23.298;2024-03-23T05:54:06;18.20;;;9.03;;
22937;SDS011;11634;42.734;23.298;2024-03-23T05:56:31;13.23;;;9.30;;
22937;SDS011;11634;42.734;23.298;2024-03-23T05:58:58;11.68;;;8.63;;
22937;SDS011;11634;42.734;23.298;2024-03-23T06:01:25;12.57;;;8.70;;
22937;SDS011;11634;42.734;23.298;2024-03-23T06:03:54;13.40;;;8.57;;
22937;SDS011;11634;42.734;23.298;2024-03-23T06:06:19;13.80;;;8.03;;
22937;SDS011;11634;42.734;23.298;2024-03-23T06:08:45;12.33;;;9.17;;
22937;SDS011;11634;42.734;23.298;2024-03-23T06:11:10;16.53;;;10.73;;
22937;SDS011;11634;42.734;23.298;2024-03-23T06:13:36;19.48;;;11.15;;
22937;SDS011;11634;42.734;23.298;2024-03-23T06:16:01;16.13;;;11.20;;
22937;SDS011;11634;42.734;23.298;2024-03-23T06:18:30;16.38;;;11.27;;
22937;SDS011;11634;42.734;23.298;2024-03-23T06:20:56;13.52;;;10.45;;
22937;SDS011;11634;42.734;23.298;2024-03-23T06:23:22;16.17;;;11.05;;
22937;SDS011;11634;42.734;23.298;2024-03-23T06:25:48;17.52;;;10.80;;
22937;SDS011;11634;42.734;23.298;2024-03-23T06:28:15;16.08;;;11.43;;
22937;SDS011;11634;42.734;23.298;2024-03-23T06:30:40;17.95;;;11.98;;
22937;SDS011;11634;42.734;23.298;2024-03-23T06:33:06;14.40;;;11.25;;
22937;SDS011;11634;42.734;23.298;2024-03-23T06:35:31;23.90;;;12.18;;
22937;SDS011;11634;42.734;23.298;2024-03-23T06:37:57;19.50;;;12.15;;
22937;SDS011;11634;42.734;23.298;2024-03-23T06:40:24;18.52;;;12.05;;
22937;SDS011;11634;42.734;23.298;2024-03-23T06:42:50;17.48;;;11.63;;
22937;SDS011;11634;42.734;23.298;2024-03-23T06:45:16;19.35;;;13.65;;
22937;SDS011;11634;42.734;23.298;2024-03-23T06:47:42;19.20;;;13.10;;
22937;SDS011;11634;42.734;23.298;2024-03-23T06:50:07;16.23;;;12.32;;
22937;SDS011;11634;42.734;23.298;2024-03-23T06:52:33;19.85;;;11.68;;
22937;SDS011;11634;42.734;23.298;2024-03-23T06:55:00;21.98;;;13.20;;
22937;SDS011;11634;42.734;23.298;2024-03-23T06:57:25;16.40;;;12.40;;
22937;SDS011;11634;42.734;23.298;2024-03-23T06:59:50;18.95;;;12.45;;
22937;SDS011;11634;42.734;23.298;2024-03-23T07:02:17;19.67;;;12.98;;
22937;SDS011;11634;42.734;23.298;2024-03-23T07:04:43;17.02;;;12.73;;
22937;SDS011;11634;42.734;23.298;2024-03-23T07:07:08;17.98;;;12.05;;
22937;SDS011;11634;42.734;23.298;2024-03-23T07:09:33;19.33;;;12.88;;
22937;SDS011;11634;42.734;23.298;2024-03-23T07:11:59;22.13;;;13.20;;
22937;SDS011;11634;42.734;23.298;2024-03-23T07:14:24;18.55;;;12.27;;
22937;SDS011;11634;42.734;23.298;2024-03-23T07:16:50;19.92;;;12.10;;
22937;SDS011;11634;42.734;23.298;2024-03-23T07:19:16;21.15;;;12.85;;
22937;SDS011;11634;42.734;23.298;2024-03-23T07:21:45;16.83;;;13.07;;
22937;SDS011;11634;42.734;23.298;2024-03-23T07:24:11;18.58;;;12.48;;
22937;SDS011;11634;42.734;23.298;2024-03-23T07:26:37;18.85;;;11.07;;
22937;SDS011;11634;42.734;23.298;2024-03-23T07:29:05;20.15;;;12.05;;
22937;SDS011;11634;42.734;23.298;2024-03-23T07:31:31;18.65;;;12.57;;
22937;SDS011;11634;42.734;23.298;2024-03-23T07:33:57;16.33;;;12.80;;
22937;SDS011;11634;42.734;23.298;2024-03-23T07:36:23;16.10;;;12.32;;
22937;SDS011;11634;42.734;23.298;2024-03-23T07:38:50;19.25;;;12.73;;
22937;SDS011;11634;42.734;23.298;2024-03-23T07:41:18;19.83;;;13.48;;
22937;SDS011;11634;42.734;23.298;2024-03-23T07:43:44;15.57;;;10.27;;
22937;SDS011;11634;42.734;23.298;2024-03-23T07:46:10;21.63;;;10.00;;
22937;SDS011;11634;42.734;23.298;2024-03-23T07:48:38;15.45;;;10.52;;
22937;SDS011;11634;42.734;23.298;2024-03-23T07:51:26;15.32;;;9.85;;
22937;SDS011;11634;42.734;23.298;2024-03-23T07:53:51;14.85;;;10.15;;
22937;SDS011;11634;42.734;23.298;2024-03-23T07:56:17;19.25;;;9.95;;
22937;SDS011;11634;42.734;23.298;2024-03-23T07:58:45;13.35;;;9.63;;
22937;SDS011;11634;42.734;23.298;2024-03-23T08:01:14;20.30;;;10.50;;
22937;SDS011;11634;42.734;23.298;2024-03-23T08:03:40;21.92;;;10.48;;
22937;SDS011;11634;42.734;23.298;2024-03-23T08:06:06;16.35;;;9.93;;
22937;SDS011;11634;42.734;23.298;2024-03-23T08:08:32;15.98;;;10.20;;
22937;SDS011;11634;42.734;23.298;2024-03-23T08:10:58;15.18;;;10.65;;
22937;SDS011;11634;42.734;23.298;2024-03-23T08:13:24;17.48;;;10.27;;
22937;SDS011;11634;42.734;23.298;2024-03-23T08:15:49;14.52;;;9.98;;
22937;SDS011;11634;42.734;23.298;2024-03-23T08:18:16;13.32;;;10.00;;
22937;SDS011;11634;42.734;23.298;2024-03-23T08:20:43;19.85;;;9.82;;
22937;SDS011;11634;42.734;23.298;2024-03-23T08:23:11;16.60;;;10.13;;
22937;SDS011;11634;42.734;23.298;2024-03-23T08:25:37;18.38;;;10.85;;
22937;SDS011;11634;42.734;23.298;2024-03-23T08:28:02;16.52;;;9.45;;
22937;SDS011;11634;42.734;23.298;2024-03-23T08:30:28;13.70;;;9.93;;
22937;SDS011;11634;42.734;23.298;2024-03-23T08:32:53;18.23;;;10.38;;
22937;SDS011;11634;42.734;23.298;2024-03-23T08:35:19;17.38;;;10.10;;
22937;SDS011;11634;42.734;23.298;2024-03-23T08:37:45;18.15;;;10.30;;
22937;SDS011;11634;42.734;23.298;2024-03-23T08:40:10;20.63;;;10.13;;
22937;SDS011;11634;42.734;23.298;2024-03-23T08:42:42;17.80;;;10.73;;
22937;SDS011;11634;42.734;23.298;2024-03-23T08:45:10;15.95;;;10.27;;
22937;SDS011;11634;42.734;23.298;2024-03-23T08:47:35;15.15;;;10.50;;
22937;SDS011;11634;42.734;23.298;2024-03-23T08:50:01;13.88;;;10.05;;
22937;SDS011;11634;42.734;23.298;2024-03-23T08:52:27;15.95;;;11.05;;
22937;SDS011;11634;42.734;23.298;2024-03-23T08:54:55;17.52;;;9.82;;
22937;SDS011;11634;42.734;23.298;2024-03-23T08:57:22;15.18;;;10.60;;
22937;SDS011;11634;42.734;23.298;2024-03-23T08:59:49;16.42;;;10.77;;
22937;SDS011;11634;42.734;23.298;2024-03-23T09:02:14;14.82;;;10.00;;
22937;SDS011;11634;42.734;23.298;2024-03-23T09:04:41;16.13;;;9.85;;
22937;SDS011;11634;42.734;23.298;2024-03-23T09:07:07;15.95;;;10.88;;
22937;SDS011;11634;42.734;23.298;2024-03-23T09:09:32;16.40;;;10.52;;
22937;SDS011;11634;42.734;23.298;2024-03-23T09:11:58;13.15;;;10.38;;
22937;SDS011;11634;42.734;23.298;2024-03-23T09:14:23;19.08;;;10.52;;
22937;SDS011;11634;42.734;23.298;2024-03-23T09:16:53;13.40;;;10.07;;
22937;SDS011;11634;42.734;23.298;2024-03-23T09:19:18;18.00;;;10.88;;
22937;SDS011;11634;42.734;23.298;2024-03-23T09:21:44;15.02;;;10.60;;
22937;SDS011;11634;42.734;23.298;2024-03-23T09:24:10;11.30;;;9.48;;
22937;SDS011;11634;42.734;23.298;2024-03-23T09:26:37;12.90;;;9.82;;
22937;SDS011;11634;42.734;23.298;2024-03-23T09:29:03;14.02;;;9.88;;
22937;SDS011;11634;42.734;23.298;2024-03-23T09:31:29;19.80;;;10.38;;
22937;SDS011;11634;42.734;23.298;2024-03-23T09:33:57;17.85;;;10.07;;
22937;SDS011;11634;42.734;23.298;2024-03-23T09:36:23;13.85;;;9.50;;
22937;SDS011;11634;42.734;23.298;2024-03-23T09:38:48;21.77;;;11.80;;
22937;SDS011;11634;42.734;23.298;2024-03-23T09:41:14;13.88;;;9.30;;
22937;SDS011;11634;42.734;23.298;2024-03-23T09:43:40;14.27;;;9.45;;
22937;SDS011;11634;42.734;23.298;2024-03-23T09:46:06;14.23;;;9.45;;
22937;SDS011;11634;42.734;23.298;2024-03-23T09:48:32;15.93;;;9.00;;
22937;SDS011;11634;42.734;23.298;2024-03-23T09:50:58;11.93;;;8.40;;
22937;SDS011;11634;42.734;23.298;2024-03-23T09:53:26;14.77;;;9.38;;
22937;SDS011;11634;42.734;23.298;2024-03-23T09:55:52;20.77;;;9.68;;
22937;SDS011;11634;42.734;23.298;2024-03-23T09:58:17;14.57;;;8.73;;
22937;SDS011;11634;42.734;23.298;2024-03-23T10:00:43;14.80;;;8.50;;
22937;SDS011;11634;42.734;23.298;2024-03-23T10:03:09;14.93;;;9.05;;
22937;SDS011;11634;42.734;23.298;2024-03-23T10:05:36;12.43;;;8.25;;
22937;SDS011;11634;42.734;23.298;2024-03-23T10:10:42;15.27;;;9.32;;
22937;SDS011;11634;42.734;23.298;2024-03-23T10:13:08;13.00;;;10.13;;
22937;SDS011;11634;42.734;23.298;2024-03-23T10:15:36;16.95;;;9.20;;
22937;SDS011;11634;42.734;23.298;2024-03-23T10:20:37;13.38;;;9.15;;
22937;SDS011;11634;42.734;23.298;2024-03-23T10:23:02;12.35;;;8.70;;
22937;SDS011;11634;42.734;23.298;2024-03-23T10:25:28;12.20;;;8.75;;
22937;SDS011;11634;42.734;23.298;2024-03-23T10:27:59;15.30;;;8.98;;
22937;SDS011;11634;42.734;23.298;2024-03-23T10:30:27;13.05;;;9.07;;
22937;SDS011;11634;42.734;23.298;2024-03-23T10:33:11;14.80;;;8.63;;
22937;SDS011;11634;42.734;23.298;2024-03-23T10:35:37;14.80;;;9.20;;
22937;SDS011;11634;42.734;23.298;2024-03-23T10:38:06;10.27;;;6.28;;
22937;SDS011;11634;42.734;23.298;2024-03-23T10:40:34;13.40;;;7.45;;
22937;SDS011;11634;42.734;23.298;2024-03-23T10:42:59;8.63;;;6.30;;
22937;SDS011;11634;42.734;23.298;2024-03-23T10:45:25;13.88;;;6.97;;
22937;SDS011;11634;42.734;23.298;2024-03-23T10:47:51;10.05;;;6.50;;
22937;SDS011;11634;42.734;23.298;2024-03-23T10:50:17;11.75;;;6.93;;
22937;SDS011;11634;42.734;23.298;2024-03-23T10:52:44;17.83;;;10.38;;
22937;SDS011;11634;42.734;23.298;2024-03-23T10:55:11;10.77;;;6.18;;
22937;SDS011;11634;42.734;23.298;2024-03-23T10:58:10;12.07;;;6.03;;
22937;SDS011;11634;42.734;23.298;2024-03-23T11:00:29;11.30;;;6.78;;
22937;SDS011;11634;42.734;23.298;2024-03-23T11:02:55;13.00;;;6.68;;
22937;SDS011;11634;42.734;23.298;2024-03-23T11:05:29;12.13;;;6.28;;
22937;SDS011;11634;42.734;23.298;2024-03-23T11:07:55;12.43;;;6.07;;
22937;SDS011;11634;42.734;23.298;2024-03-23T11:10:25;9.68;;;6.15;;
22937;SDS011;11634;42.734;23.298;2024-03-23T11:12:52;12.55;;;6.65;;
22937;SDS011;11634;42.734;23.298;2024-03-23T11:15:18;13.70;;;6.57;;
22937;SDS011;11634;42.734;23.298;2024-03-23T11:17:53;10.63;;;7.30;;
22937;SDS011;11634;42.734;23.298;2024-03-23T11:20:31;10.30;;;6.32;;
22937;SDS011;11634;42.734;23.298;2024-03-23T11:22:56;13.90;;;6.60;;
22937;SDS011;11634;42.734;23.298;2024-03-23T11:25:23;14.65;;;6.03;;
22937;SDS011;11634;42.734;23.298;2024-03-23T11:27:51;8.00;;;5.90;;
22937;SDS011;11634;42.734;23.298;2024-03-23T11:30:17;13.60;;;5.60;;
22937;SDS011;11634;42.734;23.298;2024-03-23T11:32:45;9.80;;;5.95;;
22937;SDS011;11634;42.734;23.298;2024-03-23T11:35:33;13.65;;;8.00;;
22937;SDS011;11634;42.734;23.298;2024-03-23T11:40:33;11.23;;;5.05;;
22937;SDS011;11634;42.734;23.298;2024-03-23T11:43:00;10.65;;;5.15;;
22937;SDS011;11634;42.734;23.298;2024-03-23T11:45:26;10.00;;;6.07;;
22937;SDS011;11634;42.734;23.298;2024-03-23T11:48:04;11.23;;;6.07;;
22937;SDS011;11634;42.734;23.298;2024-03-23T11:50:30;9.32;;;4.50;;
22937;SDS011;11634;42.734;23.298;2024-03-23T11:53:08;8.15;;;4.43;;
22937;SDS011;11634;42.734;23.298;2024-03-23T11:58:08;8.55;;;4.63;;
22937;SDS011;11634;42.734;23.298;2024-03-23T12:00:34;7.22;;;4.72;;
22937;SDS011;11634;42.734;23.298;2024-03-23T12:03:05;12.07;;;5.30;;
22937;SDS011;11634;42.734;23.298;2024-03-23T12:05:31;5.25;;;3.78;;
22937;SDS011;11634;42.734;23.298;2024-03-23T12:08:19;7.20;;;4.32;;
22937;SDS011;11634;42.734;23.298;2024-03-23T12:10:47;6.00;;;4.10;;
22937;SDS011;11634;42.734;23.298;2024-03-23T12:13:14;8.13;;;4.80;;
22937;SDS011;11634;42.734;23.298;2024-03-23T12:15:41;7.90;;;4.45;;
22937;SDS011;11634;42.734;23.298;2024-03-23T12:18:09;7.70;;;4.40;;
22937;SDS011;11634;42.734;23.298;2024-03-23T12:20:35;10.10;;;3.97;;
22937;SDS011;11634;42.734;23.298;2024-03-23T12:23:11;9.82;;;4.55;;
22937;SDS011;11634;42.734;23.298;2024-03-23T12:25:40;8.55;;;4.20;;
22937;SDS011;11634;42.734;23.298;2024-03-23T12:28:07;5.38;;;3.95;;
22937;SDS011;11634;42.734;23.298;2024-03-23T12:30:38;5.90;;;3.47;;
22937;SDS011;11634;42.734;23.298;2024-03-23T12:33:08;6.30;;;3.70;;
22937;SDS011;11634;42.734;23.298;2024-03-23T12:35:35;9.20;;;3.60;;
22937;SDS011;11634;42.734;23.298;2024-03-23T12:38:01;10.18;;;4.20;;
22937;SDS011;11634;42.734;23.298;2024-03-23T12:40:26;6.85;;;3.85;;
22937;SDS011;11634;42.734;23.298;2024-03-23T12:42:54;6.10;;;3.65;;
22937;SDS011;11634;42.734;23.298;2024-03-23T12:45:21;5.05;;;2.90;;
22937;SDS011;11634;42.734;23.298;2024-03-23T12:47:48;8.48;;;3.33;;
22937;SDS011;11634;42.734;23.298;2024-03-23T12:50:13;7.05;;;3.10;;
22937;SDS011;11634;42.734;23.298;2024-03-23T12:52:39;9.23;;;3.47;;
22937;SDS011;11634;42.734;23.298;2024-03-23T12:55:04;6.03;;;3.22;;
22937;SDS011;11634;42.734;23.298;2024-03-23T12:57:33;3.90;;;2.60;;
22937;SDS011;11634;42.734;23.298;2024-03-23T12:59:59;4.70;;;2.75;;
22937;SDS011;11634;42.734;23.298;2024-03-23T13:02:25;8.65;;;2.90;;
22937;SDS011;11634;42.734;23.298;2024-03-23T13:04:51;8.18;;;2.60;;
22937;SDS011;11634;42.734;23.298;2024-03-23T13:07:19;3.22;;;1.95;;
22937;SDS011;11634;42.734;23.298;2024-03-23T13:09:44;2.55;;;1.77;;
22937;SDS011;11634;42.734;23.298;2024-03-23T13:12:10;3.00;;;1.85;;
22937;SDS011;11634;42.734;23.298;2024-03-23T13:14:37;3.53;;;2.58;;
22937;SDS011;11634;42.734;23.298;2024-03-23T13:17:03;5.28;;;2.50;;
22937;SDS011;11634;42.734;23.298;2024-03-23T13:19:29;3.85;;;1.92;;
22937;SDS011;11634;42.734;23.298;2024-03-23T13:21:59;8.93;;;1.98;;
22937;SDS011;11634;42.734;23.298;2024-03-23T13:24:27;1.85;;;1.55;;
22937;SDS011;11634;42.734;23.298;2024-03-23T13:26:54;4.88;;;1.52;;
22937;SDS011;11634;42.734;23.298;2024-03-23T13:29:20;3.88;;;1.88;;
22937;SDS011;11634;42.734;23.298;2024-03-23T13:31:46;3.03;;;1.80;;
22937;SDS011;11634;42.734;23.298;2024-03-23T13:34:12;7.78;;;2.05;;
22937;SDS011;11634;42.734;23.298;2024-03-23T13:36:40;5.95;;;2.13;;
22937;SDS011;11634;42.734;23.298;2024-03-23T13:39:07;3.85;;;2.03;;
22937;SDS011;11634;42.734;23.298;2024-03-23T13:41:44;3.47;;;1.67;;
22937;SDS011;11634;42.734;23.298;2024-03-23T13:44:12;5.30;;;2.20;;
22937;SDS011;11634;42.734;23.298;2024-03-23T13:46:41;9.63;;;2.47;;
22937;SDS011;11634;42.734;23.298;2024-03-23T13:49:26;2.25;;;1.83;;
22937;SDS011;11634;42.734;23.298;2024-03-23T13:51:52;2.55;;;1.95;;
22937;SDS011;11634;42.734;23.298;2024-03-23T13:57:29;3.70;;;2.63;;
22937;SDS011;11634;42.734;23.298;2024-03-23T14:03:20;3.30;;;2.00;;
22937;SDS011;11634;42.734;23.298;2024-03-23T14:05:46;6.03;;;1.80;;
22937;SDS011;11634;42.734;23.298;2024-03-23T14:08:12;4.28;;;2.20;;
22937;SDS011;11634;42.734;23.298;2024-03-23T14:10:41;3.97;;;2.05;;
22937;SDS011;11634;42.734;23.298;2024-03-23T14:13:07;2.75;;;1.77;;
22937;SDS011;11634;42.734;23.298;2024-03-23T14:15:33;3.00;;;2.08;;
22937;SDS011;11634;42.734;23.298;2024-03-23T14:17:59;2.63;;;2.10;;
22937;SDS011;11634;42.734;23.298;2024-03-23T14:20:24;4.57;;;2.20;;
22937;SDS011;11634;42.734;23.298;2024-03-23T14:22:51;5.50;;;2.42;;
22937;SDS011;11634;42.734;23.298;2024-03-23T14:25:17;4.75;;;2.33;;
22937;SDS011;11634;42.734;23.298;2024-03-23T14:27:45;3.30;;;2.28;;
22937;SDS011;11634;42.734;23.298;2024-03-23T14:30:10;5.45;;;2.42;;
22937;SDS011;11634;42.734;23.298;2024-03-23T14:32:37;4.40;;;2.20;;
22937;SDS011;11634;42.734;23.298;2024-03-23T14:35:03;9.98;;;3.70;;
22937;SDS011;11634;42.734;23.298;2024-03-23T14:37:29;4.68;;;2.35;;
22937;SDS011;11634;42.734;23.298;2024-03-23T14:39:57;3.67;;;2.50;;
22937;SDS011;11634;42.734;23.298;2024-03-23T14:42:23;4.88;;;2.13;;
22937;SDS011;11634;42.734;23.298;2024-03-23T14:44:52;4.18;;;2.30;;
22937;SDS011;11634;42.734;23.298;2024-03-23T14:47:18;4.88;;;1.90;;
22937;SDS011;11634;42.734;23.298;2024-03-23T14:49:44;4.18;;;2.13;;
22937;SDS011;11634;42.734;23.298;2024-03-23T14:52:13;4.82;;;2.20;;
22937;SDS011;11634;42.734;23.298;2024-03-23T14:54:39;5.20;;;2.50;;
22937;SDS011;11634;42.734;23.298;2024-03-23T14:57:05;4.93;;;2.60;;
22937;SDS011;11634;42.734;23.298;2024-03-23T14:59:33;13.40;;;3.53;;
22937;SDS011;11634;42.734;23.298;2024-03-23T15:01:59;6.35;;;2.92;;
22937;SDS011;11634;42.734;23.298;2024-03-23T15:04:25;9.68;;;2.83;;
22937;SDS011;11634;42.734;23.298;2024-03-23T15:06:50;5.47;;;2.83;;
22937;SDS011;11634;42.734;23.298;2024-03-23T15:09:16;4.53;;;2.58;;
22937;SDS011;11634;42.734;23.298;2024-03-23T15:11:42;4.90;;;3.25;;
22937;SDS011;11634;42.734;23.298;2024-03-23T15:14:10;5.47;;;3.15;;
22937;SDS011;11634;42.734;23.298;2024-03-23T15:16:37;7.90;;;3.70;;
22937;SDS011;11634;42.734;23.298;2024-03-23T15:19:03;7.75;;;3.30;;
22937;SDS011;11634;42.734;23.298;2024-03-23T15:21:31;6.70;;;3.58;;
22937;SDS011;11634;42.734;23.298;2024-03-23T15:23:58;4.07;;;3.30;;
22937;SDS011;11634;42.734;23.298;2024-03-23T15:26:23;5.53;;;3.20;;